sensor_id;sensor_type;location;lat;lon;timestamp;temperature;humidity
54461;DHT22;40371;49.414;11.010;2022-10-17T00:01:08;15.00;99.90
54461;DHT22;40371;49.414;11.010;2022-10-17T00:03:35;15.00;99.90
54461;DHT22;40371;49.414;11.010;2022-10-17T00:06:11;15.00;99.90
54461;DHT22;40371;49.414;11.010;2022-10-17T00:08:38;15.00;99.90
54461;DHT22;40371;49.414;11.010;2022-10-17T00:11:08;15.00;99.90
54461;DHT22;40371;49.414;11.010;2022-10-17T00:13:37;14.90;99.90
54461;DHT22;40371;49.414;11.010;2022-10-17T00:16:03;14.80;99.90
54461;DHT22;40371;49.414;11.010;2022-10-17T00:18:28;14.80;99.90
54461;DHT22;40371;49.414;11.010;2022-10-17T00:20:54;14.70;99.90
54461;DHT22;40371;49.414;11.010;2022-10-17T00:23:20;14.70;99.90
54461;DHT22;40371;49.414;11.010;2022-10-17T00:25:45;14.70;99.90
54461;DHT22;40371;49.414;11.010;2022-10-17T00:28:13;14.70;99.90
54461;DHT22;40371;49.414;11.010;2022-10-17T00:30:39;14.70;99.90
54461;DHT22;40371;49.414;11.010;2022-10-17T00:33:04;14.80;99.90
54461;DHT22;40371;49.414;11.010;2022-10-17T00:35:30;14.70;99.90
54461;DHT22;40371;49.414;11.010;2022-10-17T00:37:56;14.60;99.90
54461;DHT22;40371;49.414;11.010;2022-10-17T00:40:22;14.60;99.90
54461;DHT22;40371;49.414;11.010;2022-10-17T00:42:48;14.60;99.90
54461;DHT22;40371;49.414;11.010;2022-10-17T00:47:47;14.50;99.90
54461;DHT22;40371;49.414;11.010;2022-10-17T00:50:16;14.50;99.90
54461;DHT22;40371;49.414;11.010;2022-10-17T00:52:43;14.50;99.90
54461;DHT22;40371;49.414;11.010;2022-10-17T00:55:15;14.60;99.90
54461;DHT22;40371;49.414;11.010;2022-10-17T00:57:43;14.50;99.90
54461;DHT22;40371;49.414;11.010;2022-10-17T01:00:11;14.50;99.90
54461;DHT22;40371;49.414;11.010;2022-10-17T01:02:37;14.40;99.90
54461;DHT22;40371;49.414;11.010;2022-10-17T01:05:04;14.40;99.90
54461;DHT22;40371;49.414;11.010;2022-10-17T01:07:33;14.40;99.90
54461;DHT22;40371;49.414;11.010;2022-10-17T01:09:59;14.30;99.90
54461;DHT22;40371;49.414;11.010;2022-10-17T01:15:10;14.20;99.90
54461;DHT22;40371;49.414;11.010;2022-10-17T01:18:09;14.20;99.90
54461;DHT22;40371;49.414;11.010;2022-10-17T01:23:23;14.10;99.90
54461;DHT22;40371;49.414;11.010;2022-10-17T01:26:29;14.10;99.90
54461;DHT22;40371;49.414;11.010;2022-10-17T01:29:27;14.10;99.90
54461;DHT22;40371;49.414;11.010;2022-10-17T01:34:36;14.20;99.90
54461;DHT22;40371;49.414;11.010;2022-10-17T01:37:12;14.20;99.90
54461;DHT22;40371;49.414;11.010;2022-10-17T01:44:51;14.20;99.90
54461;DHT22;40371;49.414;11.010;2022-10-17T01:47:25;14.20;99.90
54461;DHT22;40371;49.414;11.010;2022-10-17T01:49:53;14.20;99.90
54461;DHT22;40371;49.414;11.010;2022-10-17T01:52:32;14.20;99.90
54461;DHT22;40371;49.414;11.010;2022-10-17T01:55:23;14.20;99.90
54461;DHT22;40371;49.414;11.010;2022-10-17T01:57:53;14.10;99.90
54461;DHT22;40371;49.414;11.010;2022-10-17T02:00:23;13.90;99.90
54461;DHT22;40371;49.414;11.010;2022-10-17T02:03:06;13.90;99.90
54461;DHT22;40371;49.414;11.010;2022-10-17T02:05:38;13.90;99.90
54461;DHT22;40371;49.414;11.010;2022-10-17T02:08:04;14.00;99.90
54461;DHT22;40371;49.414;11.010;2022-10-17T02:13:26;14.00;99.90
54461;DHT22;40371;49.414;11.010;2022-10-17T02:16:33;14.10;99.90
54461;DHT22;40371;49.414;11.010;2022-10-17T02:19:06;14.10;99.90
54461;DHT22;40371;49.414;11.010;2022-10-17T02:27:23;14.10;99.90
54461;DHT22;40371;49.414;11.010;2022-10-17T02:32:42;14.10;99.90
54461;DHT22;40371;49.414;11.010;2022-10-17T02:35:11;14.10;99.90
54461;DHT22;40371;49.414;11.010;2022-10-17T02:37:40;14.00;99.90
54461;DHT22;40371;49.414;11.010;2022-10-17T02:40:07;13.90;99.90
54461;DHT22;40371;49.414;11.010;2022-10-17T02:42:37;13.80;99.90
54461;DHT22;40371;49.414;11.010;2022-10-17T02:45:04;13.80;99.90
54461;DHT22;40371;49.414;11.010;2022-10-17T02:47:34;13.80;99.90
54461;DHT22;40371;49.414;11.010;2022-10-17T02:50:01;13.70;99.90
54461;DHT22;40371;49.414;11.010;2022-10-17T02:52:36;13.70;99.90
54461;DHT22;40371;49.414;11.010;2022-10-17T02:57:53;13.70;99.90
54461;DHT22;40371;49.414;11.010;2022-10-17T03:00:21;13.70;99.90
54461;DHT22;40371;49.414;11.010;2022-10-17T03:02:51;13.80;99.90
54461;DHT22;40371;49.414;11.010;2022-10-17T03:05:21;13.80;99.90
54461;DHT22;40371;49.414;11.010;2022-10-17T03:07:47;13.90;99.90
54461;DHT22;40371;49.414;11.010;2022-10-17T03:10:13;13.90;99.90
54461;DHT22;40371;49.414;11.010;2022-10-17T03:12:39;13.90;99.90
54461;DHT22;40371;49.414;11.010;2022-10-17T03:15:06;13.80;99.90
54461;DHT22;40371;49.414;11.010;2022-10-17T03:17:33;13.80;99.90
54461;DHT22;40371;49.414;11.010;2022-10-17T03:19:59;13.80;99.90
54461;DHT22;40371;49.414;11.010;2022-10-17T03:22:25;13.70;99.90
54461;DHT22;40371;49.414;11.010;2022-10-17T03:24:50;13.80;99.90
54461;DHT22;40371;49.414;11.010;2022-10-17T03:27:16;13.80;99.90
54461;DHT22;40371;49.414;11.010;2022-10-17T03:29:43;13.70;99.90
54461;DHT22;40371;49.414;11.010;2022-10-17T03:32:09;13.70;99.90
54461;DHT22;40371;49.414;11.010;2022-10-17T03:34:35;13.60;99.90
54461;DHT22;40371;49.414;11.010;2022-10-17T03:37:01;13.50;99.90
54461;DHT22;40371;49.414;11.010;2022-10-17T03:39:29;13.40;99.90
54461;DHT22;40371;49.414;11.010;2022-10-17T03:41:54;13.40;99.90
54461;DHT22;40371;49.414;11.010;2022-10-17T03:44:20;13.40;99.90
54461;DHT22;40371;49.414;11.010;2022-10-17T03:46:46;13.50;99.90
54461;DHT22;40371;49.414;11.010;2022-10-17T03:49:12;13.50;99.90
54461;DHT22;40371;49.414;11.010;2022-10-17T03:51:38;13.50;99.90
54461;DHT22;40371;49.414;11.010;2022-10-17T03:54:10;13.60;99.90
54461;DHT22;40371;49.414;11.010;2022-10-17T03:56:36;13.50;99.90
54461;DHT22;40371;49.414;11.010;2022-10-17T03:59:04;13.50;99.90
54461;DHT22;40371;49.414;11.010;2022-10-17T04:01:33;13.50;99.90
54461;DHT22;40371;49.414;11.010;2022-10-17T04:03:59;13.50;99.90
54461;DHT22;40371;49.414;11.010;2022-10-17T04:06:28;13.40;99.90
54461;DHT22;40371;49.414;11.010;2022-10-17T04:08:54;13.40;99.90
54461;DHT22;40371;49.414;11.010;2022-10-17T04:11:31;13.30;99.90
54461;DHT22;40371;49.414;11.010;2022-10-17T04:13:59;13.30;99.90
54461;DHT22;40371;49.414;11.010;2022-10-17T04:16:26;13.30;99.90
54461;DHT22;40371;49.414;11.010;2022-10-17T04:18:58;13.40;99.90
54461;DHT22;40371;49.414;11.010;2022-10-17T04:21:28;13.30;99.90
54461;DHT22;40371;49.414;11.010;2022-10-17T04:23:56;13.30;99.90
54461;DHT22;40371;49.414;11.010;2022-10-17T04:26:38;13.30;99.90
54461;DHT22;40371;49.414;11.010;2022-10-17T04:29:04;13.20;99.90
54461;DHT22;40371;49.414;11.010;2022-10-17T04:31:29;13.20;99.90
54461;DHT22;40371;49.414;11.010;2022-10-17T04:34:08;13.20;99.90
54461;DHT22;40371;49.414;11.010;2022-10-17T04:36:34;13.20;99.90
54461;DHT22;40371;49.414;11.010;2022-10-17T04:39:00;13.20;99.90
54461;DHT22;40371;49.414;11.010;2022-10-17T04:41:29;13.10;99.90
54461;DHT22;40371;49.414;11.010;2022-10-17T04:43:55;13.10;99.90
54461;DHT22;40371;49.414;11.010;2022-10-17T04:46:20;13.20;99.90
54461;DHT22;40371;49.414;11.010;2022-10-17T04:48:47;13.20;99.90
54461;DHT22;40371;49.414;11.010;2022-10-17T04:51:17;13.20;99.90
54461;DHT22;40371;49.414;11.010;2022-10-17T04:54:12;13.20;99.90
54461;DHT22;40371;49.414;11.010;2022-10-17T04:56:41;13.20;99.90
54461;DHT22;40371;49.414;11.010;2022-10-17T04:59:07;13.20;99.90
54461;DHT22;40371;49.414;11.010;2022-10-17T05:01:33;13.10;99.90
54461;DHT22;40371;49.414;11.010;2022-10-17T05:03:59;13.10;99.90
54461;DHT22;40371;49.414;11.010;2022-10-17T05:06:26;13.10;99.90
54461;DHT22;40371;49.414;11.010;2022-10-17T05:09:13;13.00;99.90
54461;DHT22;40371;49.414;11.010;2022-10-17T05:11:38;12.90;99.90
54461;DHT22;40371;49.414;11.010;2022-10-17T05:14:04;12.90;99.90
54461;DHT22;40371;49.414;11.010;2022-10-17T05:16:31;12.90;99.90
54461;DHT22;40371;49.414;11.010;2022-10-17T05:18:58;12.90;99.90
54461;DHT22;40371;49.414;11.010;2022-10-17T05:21:28;12.90;99.90
54461;DHT22;40371;49.414;11.010;2022-10-17T05:23:54;12.90;99.90
54461;DHT22;40371;49.414;11.010;2022-10-17T05:26:22;12.90;99.90
54461;DHT22;40371;49.414;11.010;2022-10-17T05:28:48;12.80;99.90
54461;DHT22;40371;49.414;11.010;2022-10-17T05:31:15;12.70;99.90
54461;DHT22;40371;49.414;11.010;2022-10-17T05:33:41;12.70;99.90
54461;DHT22;40371;49.414;11.010;2022-10-17T05:36:07;12.70;99.90
54461;DHT22;40371;49.414;11.010;2022-10-17T05:38:33;12.80;99.90
54461;DHT22;40371;49.414;11.010;2022-10-17T05:41:02;12.80;99.90
54461;DHT22;40371;49.414;11.010;2022-10-17T05:43:32;12.80;99.90
54461;DHT22;40371;49.414;11.010;2022-10-17T05:45:58;12.70;99.90
54461;DHT22;40371;49.414;11.010;2022-10-17T05:48:26;12.70;99.90
54461;DHT22;40371;49.414;11.010;2022-10-17T05:51:05;12.70;99.90
54461;DHT22;40371;49.414;11.010;2022-10-17T05:53:33;12.60;99.90
54461;DHT22;40371;49.414;11.010;2022-10-17T05:56:04;12.70;99.90
54461;DHT22;40371;49.414;11.010;2022-10-17T05:58:31;12.80;99.90
54461;DHT22;40371;49.414;11.010;2022-10-17T06:01:04;12.80;99.90
54461;DHT22;40371;49.414;11.010;2022-10-17T06:03:30;12.60;99.90
54461;DHT22;40371;49.414;11.010;2022-10-17T06:06:05;12.60;99.90
54461;DHT22;40371;49.414;11.010;2022-10-17T06:08:36;12.60;99.90
54461;DHT22;40371;49.414;11.010;2022-10-17T06:11:03;12.70;99.90
54461;DHT22;40371;49.414;11.010;2022-10-17T06:13:29;12.80;99.90
54461;DHT22;40371;49.414;11.010;2022-10-17T06:15:56;12.90;99.90
54461;DHT22;40371;49.414;11.010;2022-10-17T06:18:22;13.00;99.90
54461;DHT22;40371;49.414;11.010;2022-10-17T06:20:48;13.10;99.90
54461;DHT22;40371;49.414;11.010;2022-10-17T06:23:16;13.10;99.90
54461;DHT22;40371;49.414;11.010;2022-10-17T06:26:08;13.00;99.90
54461;DHT22;40371;49.414;11.010;2022-10-17T06:28:42;13.10;99.90
54461;DHT22;40371;49.414;11.010;2022-10-17T06:31:14;13.00;99.90
54461;DHT22;40371;49.414;11.010;2022-10-17T06:33:40;12.90;99.90
54461;DHT22;40371;49.414;11.010;2022-10-17T06:36:09;12.80;99.90
54461;DHT22;40371;49.414;11.010;2022-10-17T06:38:36;12.70;99.90
54461;DHT22;40371;49.414;11.010;2022-10-17T06:41:12;12.70;99.90
54461;DHT22;40371;49.414;11.010;2022-10-17T06:43:40;12.70;99.90
54461;DHT22;40371;49.414;11.010;2022-10-17T06:46:26;12.80;99.90
54461;DHT22;40371;49.414;11.010;2022-10-17T06:49:03;12.90;99.90
54461;DHT22;40371;49.414;11.010;2022-10-17T06:51:41;12.90;99.90
54461;DHT22;40371;49.414;11.010;2022-10-17T06:54:10;12.90;99.90
54461;DHT22;40371;49.414;11.010;2022-10-17T06:56:47;13.00;99.90
54461;DHT22;40371;49.414;11.010;2022-10-17T06:59:31;13.10;99.90
54461;DHT22;40371;49.414;11.010;2022-10-17T07:02:02;13.20;99.90
54461;DHT22;40371;49.414;11.010;2022-10-17T07:04:29;13.30;99.90
54461;DHT22;40371;49.414;11.010;2022-10-17T07:06:55;13.30;99.90
54461;DHT22;40371;49.414;11.010;2022-10-17T07:09:24;13.50;99.90
54461;DHT22;40371;49.414;11.010;2022-10-17T07:11:51;13.60;99.90
54461;DHT22;40371;49.414;11.010;2022-10-17T07:14:17;13.70;99.90
54461;DHT22;40371;49.414;11.010;2022-10-17T07:16:43;13.80;99.90
54461;DHT22;40371;49.414;11.010;2022-10-17T07:19:16;13.90;99.90
54461;DHT22;40371;49.414;11.010;2022-10-17T07:21:41;14.00;99.90
54461;DHT22;40371;49.414;11.010;2022-10-17T07:24:09;14.20;99.90
54461;DHT22;40371;49.414;11.010;2022-10-17T07:26:35;14.30;99.90
54461;DHT22;40371;49.414;11.010;2022-10-17T07:29:01;14.50;99.90
54461;DHT22;40371;49.414;11.010;2022-10-17T07:31:39;14.60;99.90
54461;DHT22;40371;49.414;11.010;2022-10-17T07:34:04;14.70;99.90
54461;DHT22;40371;49.414;11.010;2022-10-17T07:36:30;14.80;99.90
54461;DHT22;40371;49.414;11.010;2022-10-17T07:38:58;14.90;99.90
54461;DHT22;40371;49.414;11.010;2022-10-17T07:41:24;15.20;99.90
54461;DHT22;40371;49.414;11.010;2022-10-17T07:43:50;15.30;99.90
54461;DHT22;40371;49.414;11.010;2022-10-17T07:46:19;15.20;99.90
54461;DHT22;40371;49.414;11.010;2022-10-17T07:48:48;15.20;99.90
54461;DHT22;40371;49.414;11.010;2022-10-17T07:51:14;15.40;99.90
54461;DHT22;40371;49.414;11.010;2022-10-17T07:53:41;15.50;99.90
54461;DHT22;40371;49.414;11.010;2022-10-17T07:56:08;15.60;99.90
54461;DHT22;40371;49.414;11.010;2022-10-17T07:58:34;15.60;99.90
54461;DHT22;40371;49.414;11.010;2022-10-17T08:01:01;15.70;99.90
54461;DHT22;40371;49.414;11.010;2022-10-17T08:03:28;15.80;99.90
54461;DHT22;40371;49.414;11.010;2022-10-17T08:05:58;15.90;99.90
54461;DHT22;40371;49.414;11.010;2022-10-17T08:08:24;16.10;99.90
54461;DHT22;40371;49.414;11.010;2022-10-17T08:10:50;16.20;99.90
54461;DHT22;40371;49.414;11.010;2022-10-17T08:13:15;16.40;99.90
54461;DHT22;40371;49.414;11.010;2022-10-17T08:15:41;16.50;99.90
54461;DHT22;40371;49.414;11.010;2022-10-17T08:18:07;16.70;99.90
54461;DHT22;40371;49.414;11.010;2022-10-17T08:20:32;16.80;99.90
54461;DHT22;40371;49.414;11.010;2022-10-17T08:22:58;17.00;99.90
54461;DHT22;40371;49.414;11.010;2022-10-17T08:25:23;17.20;99.90
54461;DHT22;40371;49.414;11.010;2022-10-17T08:27:49;17.30;99.90
54461;DHT22;40371;49.414;11.010;2022-10-17T08:30:16;17.60;99.90
54461;DHT22;40371;49.414;11.010;2022-10-17T08:32:42;17.80;99.90
54461;DHT22;40371;49.414;11.010;2022-10-17T08:35:08;17.90;99.90
54461;DHT22;40371;49.414;11.010;2022-10-17T08:37:33;18.10;99.90
54461;DHT22;40371;49.414;11.010;2022-10-17T08:39:59;18.30;99.90
54461;DHT22;40371;49.414;11.010;2022-10-17T08:42:53;18.50;99.90
54461;DHT22;40371;49.414;11.010;2022-10-17T08:45:42;18.70;99.90
54461;DHT22;40371;49.414;11.010;2022-10-17T08:48:16;18.90;99.90
54461;DHT22;40371;49.414;11.010;2022-10-17T08:50:48;19.10;99.90
54461;DHT22;40371;49.414;11.010;2022-10-17T08:53:20;19.20;99.90
54461;DHT22;40371;49.414;11.010;2022-10-17T08:55:49;19.30;99.90
54461;DHT22;40371;49.414;11.010;2022-10-17T08:58:26;19.40;99.90
54461;DHT22;40371;49.414;11.010;2022-10-17T09:01:08;19.60;99.90
54461;DHT22;40371;49.414;11.010;2022-10-17T09:06:38;20.60;99.90
54461;DHT22;40371;49.414;11.010;2022-10-17T09:20:25;23.90;99.90
54461;DHT22;40371;49.414;11.010;2022-10-17T09:23:07;25.00;99.90
54461;DHT22;40371;49.414;11.010;2022-10-17T09:25:46;26.60;99.90
54461;DHT22;40371;49.414;11.010;2022-10-17T09:31:04;27.90;99.90
54461;DHT22;40371;49.414;11.010;2022-10-17T09:33:44;28.00;99.90
54461;DHT22;40371;49.414;11.010;2022-10-17T09:36:16;27.80;99.90
54461;DHT22;40371;49.414;11.010;2022-10-17T09:38:54;28.20;99.90
54461;DHT22;40371;49.414;11.010;2022-10-17T09:41:23;28.60;99.90
54461;DHT22;40371;49.414;11.010;2022-10-17T09:43:54;29.30;99.90
54461;DHT22;40371;49.414;11.010;2022-10-17T09:46:39;30.70;99.90
54461;DHT22;40371;49.414;11.010;2022-10-17T09:49:15;30.40;99.90
54461;DHT22;40371;49.414;11.010;2022-10-17T09:51:42;30.60;99.90
54461;DHT22;40371;49.414;11.010;2022-10-17T09:54:18;31.10;99.90
54461;DHT22;40371;49.414;11.010;2022-10-17T09:57:01;31.90;99.80
54461;DHT22;40371;49.414;11.010;2022-10-17T09:59:47;31.50;98.80
54461;DHT22;40371;49.414;11.010;2022-10-17T10:02:22;30.90;99.50
54461;DHT22;40371;49.414;11.010;2022-10-17T10:07:28;32.10;95.40
54461;DHT22;40371;49.414;11.010;2022-10-17T10:09:54;32.90;95.10
54461;DHT22;40371;49.414;11.010;2022-10-17T10:12:26;32.80;93.70
54461;DHT22;40371;49.414;11.010;2022-10-17T10:14:52;32.70;93.60
54461;DHT22;40371;49.414;11.010;2022-10-17T10:20:03;33.60;93.00
54461;DHT22;40371;49.414;11.010;2022-10-17T10:22:28;34.10;91.70
54461;DHT22;40371;49.414;11.010;2022-10-17T10:27:35;34.90;89.70
54461;DHT22;40371;49.414;11.010;2022-10-17T10:30:02;34.20;87.80
54461;DHT22;40371;49.414;11.010;2022-10-17T10:32:34;34.00;88.70
54461;DHT22;40371;49.414;11.010;2022-10-17T10:35:34;33.10;90.00
54461;DHT22;40371;49.414;11.010;2022-10-17T10:38:02;33.60;88.00
54461;DHT22;40371;49.414;11.010;2022-10-17T10:46:04;35.70;81.90
54461;DHT22;40371;49.414;11.010;2022-10-17T10:49:01;36.30;79.20
54461;DHT22;40371;49.414;11.010;2022-10-17T10:51:37;37.40;76.20
54461;DHT22;40371;49.414;11.010;2022-10-17T10:54:15;36.90;73.50
54461;DHT22;40371;49.414;11.010;2022-10-17T10:56:51;36.10;72.80
54461;DHT22;40371;49.414;11.010;2022-10-17T11:02:31;37.20;71.40
54461;DHT22;40371;49.414;11.010;2022-10-17T11:05:13;36.50;72.70
54461;DHT22;40371;49.414;11.010;2022-10-17T11:07:51;34.60;74.80
54461;DHT22;40371;49.414;11.010;2022-10-17T11:13:10;33.40;77.40
54461;DHT22;40371;49.414;11.010;2022-10-17T11:15:50;31.80;80.70
54461;DHT22;40371;49.414;11.010;2022-10-17T11:18:21;32.10;81.00
54461;DHT22;40371;49.414;11.010;2022-10-17T11:25:56;29.80;86.20
54461;DHT22;40371;49.414;11.010;2022-10-17T11:28:23;30.40;85.10
54461;DHT22;40371;49.414;11.010;2022-10-17T11:31:02;30.20;86.50
54461;DHT22;40371;49.414;11.010;2022-10-17T11:33:43;29.30;89.30
54461;DHT22;40371;49.414;11.010;2022-10-17T11:36:10;29.20;90.30
54461;DHT22;40371;49.414;11.010;2022-10-17T11:38:55;29.30;90.00
54461;DHT22;40371;49.414;11.010;2022-10-17T11:41:45;28.70;91.30
54461;DHT22;40371;49.414;11.010;2022-10-17T11:44:21;28.60;91.60
54461;DHT22;40371;49.414;11.010;2022-10-17T11:49:42;27.60;92.60
54461;DHT22;40371;49.414;11.010;2022-10-17T11:54:53;27.70;92.50
54461;DHT22;40371;49.414;11.010;2022-10-17T11:57:43;27.60;93.30
54461;DHT22;40371;49.414;11.010;2022-10-17T12:00:27;27.80;92.90
54461;DHT22;40371;49.414;11.010;2022-10-17T12:03:06;27.30;93.80
54461;DHT22;40371;49.414;11.010;2022-10-17T12:06:10;27.20;94.00
54461;DHT22;40371;49.414;11.010;2022-10-17T12:08:51;27.50;93.90
54461;DHT22;40371;49.414;11.010;2022-10-17T12:11:44;27.70;93.60
54461;DHT22;40371;49.414;11.010;2022-10-17T12:14:37;27.90;94.10
54461;DHT22;40371;49.414;11.010;2022-10-17T12:17:04;27.50;94.60
54461;DHT22;40371;49.414;11.010;2022-10-17T12:19:36;27.60;94.70
54461;DHT22;40371;49.414;11.010;2022-10-17T12:22:23;27.30;95.10
54461;DHT22;40371;49.414;11.010;2022-10-17T12:24:56;27.00;95.50
54461;DHT22;40371;49.414;11.010;2022-10-17T12:30:06;27.10;95.50
54461;DHT22;40371;49.414;11.010;2022-10-17T12:35:26;26.70;96.80
54461;DHT22;40371;49.414;11.010;2022-10-17T12:45:55;26.80;98.50
54461;DHT22;40371;49.414;11.010;2022-10-17T12:51:18;26.60;98.50
54461;DHT22;40371;49.414;11.010;2022-10-17T12:56:16;26.40;99.50
54461;DHT22;40371;49.414;11.010;2022-10-17T12:58:45;26.80;98.70
54461;DHT22;40371;49.414;11.010;2022-10-17T13:01:24;26.90;99.10
54461;DHT22;40371;49.414;11.010;2022-10-17T13:03:52;26.50;98.90
54461;DHT22;40371;49.414;11.010;2022-10-17T13:06:21;25.80;99.90
54461;DHT22;40371;49.414;11.010;2022-10-17T13:08:55;25.40;99.90
54461;DHT22;40371;49.414;11.010;2022-10-17T13:11:23;25.30;99.90
54461;DHT22;40371;49.414;11.010;2022-10-17T13:13:52;25.40;99.90
54461;DHT22;40371;49.414;11.010;2022-10-17T13:16:39;25.20;99.90
54461;DHT22;40371;49.414;11.010;2022-10-17T13:19:16;25.10;99.90
54461;DHT22;40371;49.414;11.010;2022-10-17T13:21:56;25.40;99.90
54461;DHT22;40371;49.414;11.010;2022-10-17T13:24:37;25.30;99.90
54461;DHT22;40371;49.414;11.010;2022-10-17T13:27:06;25.30;99.90
54461;DHT22;40371;49.414;11.010;2022-10-17T13:29:45;25.30;99.90
54461;DHT22;40371;49.414;11.010;2022-10-17T13:32:10;25.00;99.90
54461;DHT22;40371;49.414;11.010;2022-10-17T13:34:36;24.90;99.90
54461;DHT22;40371;49.414;11.010;2022-10-17T13:37:04;24.90;99.90
54461;DHT22;40371;49.414;11.010;2022-10-17T13:39:41;24.80;99.90
54461;DHT22;40371;49.414;11.010;2022-10-17T13:42:27;25.00;99.90
54461;DHT22;40371;49.414;11.010;2022-10-17T13:44:53;24.90;99.90
54461;DHT22;40371;49.414;11.010;2022-10-17T13:47:34;24.70;99.90
54461;DHT22;40371;49.414;11.010;2022-10-17T13:50:01;24.60;99.90
54461;DHT22;40371;49.414;11.010;2022-10-17T13:52:28;24.60;99.90
54461;DHT22;40371;49.414;11.010;2022-10-17T13:54:54;24.70;99.90
54461;DHT22;40371;49.414;11.010;2022-10-17T13:57:30;24.60;99.90
54461;DHT22;40371;49.414;11.010;2022-10-17T14:00:01;24.50;99.90
54461;DHT22;40371;49.414;11.010;2022-10-17T14:02:39;24.50;99.90
54461;DHT22;40371;49.414;11.010;2022-10-17T14:05:16;24.50;99.90
54461;DHT22;40371;49.414;11.010;2022-10-17T14:07:54;24.40;99.90
54461;DHT22;40371;49.414;11.010;2022-10-17T14:10:32;24.40;99.90
54461;DHT22;40371;49.414;11.010;2022-10-17T14:13:00;24.40;99.90
54461;DHT22;40371;49.414;11.010;2022-10-17T14:15:28;24.40;99.90
54461;DHT22;40371;49.414;11.010;2022-10-17T14:18:03;24.50;99.90
54461;DHT22;40371;49.414;11.010;2022-10-17T14:20:29;24.60;99.90
54461;DHT22;40371;49.414;11.010;2022-10-17T14:22:56;24.50;99.90
54461;DHT22;40371;49.414;11.010;2022-10-17T14:28:16;24.50;99.90
54461;DHT22;40371;49.414;11.010;2022-10-17T14:30:45;24.40;99.90
54461;DHT22;40371;49.414;11.010;2022-10-17T14:33:14;24.30;99.90
54461;DHT22;40371;49.414;11.010;2022-10-17T14:35:49;24.20;99.90
54461;DHT22;40371;49.414;11.010;2022-10-17T14:38:18;24.20;99.90
54461;DHT22;40371;49.414;11.010;2022-10-17T14:40:59;24.20;99.90
54461;DHT22;40371;49.414;11.010;2022-10-17T14:43:28;24.20;99.90
54461;DHT22;40371;49.414;11.010;2022-10-17T14:45:58;24.20;99.90
54461;DHT22;40371;49.414;11.010;2022-10-17T14:48:25;24.10;99.90
54461;DHT22;40371;49.414;11.010;2022-10-17T14:53:34;24.00;99.90
54461;DHT22;40371;49.414;11.010;2022-10-17T14:56:02;23.90;99.90
54461;DHT22;40371;49.414;11.010;2022-10-17T14:58:32;23.90;99.90
54461;DHT22;40371;49.414;11.010;2022-10-17T15:00:59;23.90;99.90
54461;DHT22;40371;49.414;11.010;2022-10-17T15:03:25;23.90;99.90
54461;DHT22;40371;49.414;11.010;2022-10-17T15:05:51;23.90;99.90
54461;DHT22;40371;49.414;11.010;2022-10-17T15:08:21;23.90;99.90
54461;DHT22;40371;49.414;11.010;2022-10-17T15:10:48;23.90;99.90
54461;DHT22;40371;49.414;11.010;2022-10-17T15:13:14;23.80;99.90
54461;DHT22;40371;49.414;11.010;2022-10-17T15:15:40;23.80;99.90
54461;DHT22;40371;49.414;11.010;2022-10-17T15:18:09;23.80;99.90
54461;DHT22;40371;49.414;11.010;2022-10-17T15:20:35;23.70;99.90
54461;DHT22;40371;49.414;11.010;2022-10-17T15:23:02;23.70;99.90
54461;DHT22;40371;49.414;11.010;2022-10-17T15:25:29;23.70;99.90
54461;DHT22;40371;49.414;11.010;2022-10-17T15:27:55;23.70;99.90
54461;DHT22;40371;49.414;11.010;2022-10-17T15:30:24;23.60;99.90
54461;DHT22;40371;49.414;11.010;2022-10-17T15:32:50;23.60;99.90
54461;DHT22;40371;49.414;11.010;2022-10-17T15:35:17;23.50;99.90
54461;DHT22;40371;49.414;11.010;2022-10-17T15:37:43;23.40;99.90
54461;DHT22;40371;49.414;11.010;2022-10-17T15:40:25;23.40;99.90
54461;DHT22;40371;49.414;11.010;2022-10-17T15:42:55;23.30;99.90
54461;DHT22;40371;49.414;11.010;2022-10-17T15:45:21;23.30;99.90
54461;DHT22;40371;49.414;11.010;2022-10-17T15:47:55;23.10;99.90
54461;DHT22;40371;49.414;11.010;2022-10-17T15:50:22;23.00;99.90
54461;DHT22;40371;49.414;11.010;2022-10-17T15:52:48;22.90;99.90
54461;DHT22;40371;49.414;11.010;2022-10-17T15:55:16;22.80;99.90
54461;DHT22;40371;49.414;11.010;2022-10-17T15:57:44;22.70;99.90
54461;DHT22;40371;49.414;11.010;2022-10-17T16:00:21;22.60;99.90
54461;DHT22;40371;49.414;11.010;2022-10-17T16:02:47;22.50;99.90
54461;DHT22;40371;49.414;11.010;2022-10-17T16:05:21;22.40;99.90
54461;DHT22;40371;49.414;11.010;2022-10-17T16:07:48;22.30;99.90
54461;DHT22;40371;49.414;11.010;2022-10-17T16:10:15;22.30;99.90
54461;DHT22;40371;49.414;11.010;2022-10-17T16:12:41;22.30;99.90
54461;DHT22;40371;49.414;11.010;2022-10-17T16:15:27;22.10;99.90
54461;DHT22;40371;49.414;11.010;2022-10-17T16:17:53;22.00;99.90
54461;DHT22;40371;49.414;11.010;2022-10-17T16:20:21;21.80;99.90
54461;DHT22;40371;49.414;11.010;2022-10-17T16:22:47;21.60;99.90
54461;DHT22;40371;49.414;11.010;2022-10-17T16:25:22;21.50;99.90
54461;DHT22;40371;49.414;11.010;2022-10-17T16:27:50;21.50;99.90
54461;DHT22;40371;49.414;11.010;2022-10-17T16:30:16;21.40;99.90
54461;DHT22;40371;49.414;11.010;2022-10-17T16:32:42;21.30;99.90
54461;DHT22;40371;49.414;11.010;2022-10-17T16:35:12;21.20;99.90
54461;DHT22;40371;49.414;11.010;2022-10-17T16:37:38;21.20;99.90
54461;DHT22;40371;49.414;11.010;2022-10-17T16:40:04;21.10;99.90
54461;DHT22;40371;49.414;11.010;2022-10-17T16:42:30;21.00;99.90
54461;DHT22;40371;49.414;11.010;2022-10-17T16:44:56;20.90;99.90
54461;DHT22;40371;49.414;11.010;2022-10-17T16:47:21;20.90;99.90
54461;DHT22;40371;49.414;11.010;2022-10-17T16:49:47;20.80;99.90
54461;DHT22;40371;49.414;11.010;2022-10-17T16:52:12;20.70;99.90
54461;DHT22;40371;49.414;11.010;2022-10-17T16:54:38;20.50;99.90
54461;DHT22;40371;49.414;11.010;2022-10-17T16:57:04;20.50;99.90
54461;DHT22;40371;49.414;11.010;2022-10-17T16:59:29;20.50;99.90
54461;DHT22;40371;49.414;11.010;2022-10-17T17:01:55;20.50;99.90
54461;DHT22;40371;49.414;11.010;2022-10-17T17:04:21;20.40;99.90
54461;DHT22;40371;49.414;11.010;2022-10-17T17:06:47;20.30;99.90
54461;DHT22;40371;49.414;11.010;2022-10-17T17:09:13;20.20;99.90
54461;DHT22;40371;49.414;11.010;2022-10-17T17:11:38;20.20;99.90
54461;DHT22;40371;49.414;11.010;2022-10-17T17:14:05;20.10;99.90
54461;DHT22;40371;49.414;11.010;2022-10-17T17:16:33;20.10;99.90
54461;DHT22;40371;49.414;11.010;2022-10-17T17:19:11;20.00;99.90